sim
Sign-in with your pilot id or email,
or register
Callsign
Passwort

Schedule Details

Flight Number: RYR8996 (3)
Departure: Dublin Airport (EIDW) at 16:45
Arrival: Munich Airport (EDDM) at 19:05
Route: Ryanair Passenger Schedule. Enter filed route here before submitting Pirep.

Weather Information
Getting current METAR information for EIDW 221300Z 23010G24KT 180V270 9999 FEW022 BKN034 BKN250 16/12 Q1004 NOSIG
Getting current METAR information for EDDM 221320Z 05004KT 340V140 9999 FEW040 24/14 Q1012 NOSIG

Schedule Frequency

Route Map